sensor_id;sensor_type;location;lat;lon;timestamp;P1;P2;P0
83543;PMS5003;73487;54.448;-0.942;2024-02-14T00:00:15;40;32;17
83543;PMS5003;73487;54.448;-0.942;2024-02-14T00:03:15;34;32;13
83543;PMS5003;73487;54.448;-0.942;2024-02-14T00:06:15;32;29;15
83543;PMS5003;73487;54.448;-0.942;2024-02-14T00:09:15;61;45;21
83543;PMS5003;73487;54.448;-0.942;2024-02-14T00:12:15;55;44;24
83543;PMS5003;73487;54.448;-0.942;2024-02-14T00:15:15;53;41;21
83543;PMS5003;73487;54.448;-0.942;2024-02-14T00:18:15;58;46;21
83543;PMS5003;73487;54.448;-0.942;2024-02-14T00:21:15;45;39;16
83543;PMS5003;73487;54.448;-0.942;2024-02-14T00:24:15;55;41;20
83543;PMS5003;73487;54.448;-0.942;2024-02-14T00:27:15;48;39;20
83543;PMS5003;73487;54.448;-0.942;2024-02-14T00:30:15;40;32;14
83543;PMS5003;73487;54.448;-0.942;2024-02-14T00:33:45;40;34;14
83543;PMS5003;73487;54.448;-0.942;2024-02-14T00:36:45;39;35;14
83543;PMS5003;73487;54.448;-0.942;2024-02-14T00:39:45;35;32;16
83543;PMS5003;73487;54.448;-0.942;2024-02-14T00:42:45;37;31;18
83543;PMS5003;73487;54.448;-0.942;2024-02-14T00:45:45;40;36;15
83543;PMS5003;73487;54.448;-0.942;2024-02-14T00:48:45;49;37;18
83543;PMS5003;73487;54.448;-0.942;2024-02-14T00:51:45;41;35;16
83543;PMS5003;73487;54.448;-0.942;2024-02-14T00:54:45;46;38;16
83543;PMS5003;73487;54.448;-0.942;2024-02-14T00:57:45;45;38;19
83543;PMS5003;73487;54.448;-0.942;2024-02-14T01:00:45;38;37;16
83543;PMS5003;73487;54.448;-0.942;2024-02-14T01:03:45;39;32;14
83543;PMS5003;73487;54.448;-0.942;2024-02-14T01:06:45;27;25;11
83543;PMS5003;73487;54.448;-0.942;2024-02-14T01:09:45;40;34;14
83543;PMS5003;73487;54.448;-0.942;2024-02-14T01:12:45;39;34;14
83543;PMS5003;73487;54.448;-0.942;2024-02-14T01:15:45;26;23;13
83543;PMS5003;73487;54.448;-0.942;2024-02-14T01:18:45;43;33;12
83543;PMS5003;73487;54.448;-0.942;2024-02-14T01:21:45;36;30;13
83543;PMS5003;73487;54.448;-0.942;2024-02-14T01:24:45;27;25;12
83543;PMS5003;73487;54.448;-0.942;2024-02-14T01:27:45;30;25;8
83543;PMS5003;73487;54.448;-0.942;2024-02-14T01:30:45;30;25;10
83543;PMS5003;73487;54.448;-0.942;2024-02-14T01:33:45;32;25;13
83543;PMS5003;73487;54.448;-0.942;2024-02-14T01:36:45;25;20;10
83543;PMS5003;73487;54.448;-0.942;2024-02-14T01:39:45;20;19;9
83543;PMS5003;73487;54.448;-0.942;2024-02-14T01:42:45;29;24;13
83543;PMS5003;73487;54.448;-0.942;2024-02-14T01:45:45;27;22;12
83543;PMS5003;73487;54.448;-0.942;2024-02-14T01:48:45;21;19;9
83543;PMS5003;73487;54.448;-0.942;2024-02-14T01:51:45;25;21;12
83543;PMS5003;73487;54.448;-0.942;2024-02-14T01:54:45;28;27;9
83543;PMS5003;73487;54.448;-0.942;2024-02-14T01:57:45;23;23;9
83543;PMS5003;73487;54.448;-0.942;2024-02-14T02:00:45;26;23;10
83543;PMS5003;73487;54.448;-0.942;2024-02-14T02:03:45;19;16;6
83543;PMS5003;73487;54.448;-0.942;2024-02-14T02:06:45;16;14;8
83543;PMS5003;73487;54.448;-0.942;2024-02-14T02:09:46;16;13;5
83543;PMS5003;73487;54.448;-0.942;2024-02-14T02:12:45;14;13;5
83543;PMS5003;73487;54.448;-0.942;2024-02-14T02:15:45;19;17;9
83543;PMS5003;73487;54.448;-0.942;2024-02-14T02:18:45;18;15;9
83543;PMS5003;73487;54.448;-0.942;2024-02-14T02:21:45;20;18;7
83543;PMS5003;73487;54.448;-0.942;2024-02-14T02:24:45;16;12;6
83543;PMS5003;73487;54.448;-0.942;2024-02-14T02:27:45;14;12;7
83543;PMS5003;73487;54.448;-0.942;2024-02-14T02:30:45;15;13;4
83543;PMS5003;73487;54.448;-0.942;2024-02-14T02:33:45;13;10;4
83543;PMS5003;73487;54.448;-0.942;2024-02-14T02:36:45;45;34;12
83543;PMS5003;73487;54.448;-0.942;2024-02-14T02:39:45;34;29;11
83543;PMS5003;73487;54.448;-0.942;2024-02-14T02:42:45;36;32;14
83543;PMS5003;73487;54.448;-0.942;2024-02-14T02:45:45;32;21;10
83543;PMS5003;73487;54.448;-0.942;2024-02-14T02:48:45;53;38;16
83543;PMS5003;73487;54.448;-0.942;2024-02-14T02:51:45;44;34;14
83543;PMS5003;73487;54.448;-0.942;2024-02-14T02:54:45;55;42;14
83543;PMS5003;73487;54.448;-0.942;2024-02-14T02:57:45;52;37;14
83543;PMS5003;73487;54.448;-0.942;2024-02-14T03:00:45;35;28;11
83543;PMS5003;73487;54.448;-0.942;2024-02-14T03:03:45;36;31;10
83543;PMS5003;73487;54.448;-0.942;2024-02-14T03:06:45;39;33;14
83543;PMS5003;73487;54.448;-0.942;2024-02-14T03:09:45;44;32;15
83543;PMS5003;73487;54.448;-0.942;2024-02-14T03:12:46;53;37;15
83543;PMS5003;73487;54.448;-0.942;2024-02-14T03:16:15;28;23;11
83543;PMS5003;73487;54.448;-0.942;2024-02-14T03:19:15;29;25;11
83543;PMS5003;73487;54.448;-0.942;2024-02-14T03:22:15;31;28;11
83543;PMS5003;73487;54.448;-0.942;2024-02-14T03:25:16;22;21;9
83543;PMS5003;73487;54.448;-0.942;2024-02-14T03:28:15;27;25;12
83543;PMS5003;73487;54.448;-0.942;2024-02-14T03:31:15;21;18;9
83543;PMS5003;73487;54.448;-0.942;2024-02-14T03:34:15;26;22;9
83543;PMS5003;73487;54.448;-0.942;2024-02-14T03:37:15;23;22;9
83543;PMS5003;73487;54.448;-0.942;2024-02-14T03:40:15;25;19;9
83543;PMS5003;73487;54.448;-0.942;2024-02-14T03:43:15;28;22;12
83543;PMS5003;73487;54.448;-0.942;2024-02-14T03:46:15;30;27;11
83543;PMS5003;73487;54.448;-0.942;2024-02-14T03:49:15;27;23;10
83543;PMS5003;73487;54.448;-0.942;2024-02-14T03:52:15;37;28;10
83543;PMS5003;73487;54.448;-0.942;2024-02-14T03:55:15;24;22;8
83543;PMS5003;73487;54.448;-0.942;2024-02-14T03:58:15;24;18;7
83543;PMS5003;73487;54.448;-0.942;2024-02-14T04:01:15;22;18;12
83543;PMS5003;73487;54.448;-0.942;2024-02-14T04:04:15;21;16;8
83543;PMS5003;73487;54.448;-0.942;2024-02-14T04:07:15;22;20;12
83543;PMS5003;73487;54.448;-0.942;2024-02-14T04:10:15;20;18;10
83543;PMS5003;73487;54.448;-0.942;2024-02-14T04:13:15;21;18;9
83543;PMS5003;73487;54.448;-0.942;2024-02-14T04:16:18;17;16;9
83543;PMS5003;73487;54.448;-0.942;2024-02-14T04:19:15;22;20;9
83543;PMS5003;73487;54.448;-0.942;2024-02-14T04:22:15;21;20;10
83543;PMS5003;73487;54.448;-0.942;2024-02-14T04:25:15;21;19;10
83543;PMS5003;73487;54.448;-0.942;2024-02-14T04:28:15;17;15;8
83543;PMS5003;73487;54.448;-0.942;2024-02-14T04:31:15;24;20;7
83543;PMS5003;73487;54.448;-0.942;2024-02-14T04:34:15;21;18;8
83543;PMS5003;73487;54.448;-0.942;2024-02-14T04:37:15;21;19;9
83543;PMS5003;73487;54.448;-0.942;2024-02-14T04:40:15;15;14;8
83543;PMS5003;73487;54.448;-0.942;2024-02-14T04:43:15;20;17;7
83543;PMS5003;73487;54.448;-0.942;2024-02-14T04:46:15;19;16;9
83543;PMS5003;73487;54.448;-0.942;2024-02-14T04:49:15;13;13;7
83543;PMS5003;73487;54.448;-0.942;2024-02-14T04:52:15;9;8;6
83543;PMS5003;73487;54.448;-0.942;2024-02-14T04:55:15;15;13;5
83543;PMS5003;73487;54.448;-0.942;2024-02-14T04:58:15;20;16;8
83543;PMS5003;73487;54.448;-0.942;2024-02-14T05:01:15;15;14;5
83543;PMS5003;73487;54.448;-0.942;2024-02-14T05:04:15;15;13;5
83543;PMS5003;73487;54.448;-0.942;2024-02-14T05:07:15;16;14;7
83543;PMS5003;73487;54.448;-0.942;2024-02-14T05:10:15;16;15;8
83543;PMS5003;73487;54.448;-0.942;2024-02-14T05:13:15;4;4;3
83543;PMS5003;73487;54.448;-0.942;2024-02-14T05:16:19;4;4;1
83543;PMS5003;73487;54.448;-0.942;2024-02-14T05:19:15;3;3;2
83543;PMS5003;73487;54.448;-0.942;2024-02-14T05:22:15;3;3;1
83543;PMS5003;73487;54.448;-0.942;2024-02-14T05:25:15;6;6;3
83543;PMS5003;73487;54.448;-0.942;2024-02-14T05:28:15;5;5;4
83543;PMS5003;73487;54.448;-0.942;2024-02-14T05:31:15;4;4;3
83543;PMS5003;73487;54.448;-0.942;2024-02-14T05:34:15;4;4;2
83543;PMS5003;73487;54.448;-0.942;2024-02-14T05:37:15;10;9;4
83543;PMS5003;73487;54.448;-0.942;2024-02-14T05:40:15;3;3;2
83543;PMS5003;73487;54.448;-0.942;2024-02-14T05:43:15;3;3;2
83543;PMS5003;73487;54.448;-0.942;2024-02-14T05:46:15;4;4;2
83543;PMS5003;73487;54.448;-0.942;2024-02-14T05:49:15;7;7;3
83543;PMS5003;73487;54.448;-0.942;2024-02-14T05:52:15;11;11;7
83543;PMS5003;73487;54.448;-0.942;2024-02-14T05:55:15;8;8;4
83543;PMS5003;73487;54.448;-0.942;2024-02-14T05:58:15;8;6;3
83543;PMS5003;73487;54.448;-0.942;2024-02-14T06:01:15;6;6;3
83543;PMS5003;73487;54.448;-0.942;2024-02-14T06:04:15;3;3;1
83543;PMS5003;73487;54.448;-0.942;2024-02-14T06:07:15;5;4;3
83543;PMS5003;73487;54.448;-0.942;2024-02-14T06:10:15;8;7;2
83543;PMS5003;73487;54.448;-0.942;2024-02-14T06:13:15;9;9;5
83543;PMS5003;73487;54.448;-0.942;2024-02-14T06:16:15;6;6;2
83543;PMS5003;73487;54.448;-0.942;2024-02-14T06:19:15;3;3;1
83543;PMS5003;73487;54.448;-0.942;2024-02-14T06:22:45;5;5;3
83543;PMS5003;73487;54.448;-0.942;2024-02-14T06:25:45;3;3;2
83543;PMS5003;73487;54.448;-0.942;2024-02-14T06:28:45;2;2;1
83543;PMS5003;73487;54.448;-0.942;2024-02-14T06:31:45;4;3;2
83543;PMS5003;73487;54.448;-0.942;2024-02-14T06:34:45;2;2;1
83543;PMS5003;73487;54.448;-0.942;2024-02-14T06:37:45;2;2;1
83543;PMS5003;73487;54.448;-0.942;2024-02-14T06:40:45;1;1;1
83543;PMS5003;73487;54.448;-0.942;2024-02-14T06:43:46;2;1;0
83543;PMS5003;73487;54.448;-0.942;2024-02-14T06:46:45;1;1;0
83543;PMS5003;73487;54.448;-0.942;2024-02-14T06:49:45;0;0;0
83543;PMS5003;73487;54.448;-0.942;2024-02-14T06:52:45;0;0;0
83543;PMS5003;73487;54.448;-0.942;2024-02-14T06:55:45;0;0;0
83543;PMS5003;73487;54.448;-0.942;2024-02-14T06:58:45;0;0;0
83543;PMS5003;73487;54.448;-0.942;2024-02-14T07:01:45;0;0;0
83543;PMS5003;73487;54.448;-0.942;2024-02-14T07:04:45;0;0;0
83543;PMS5003;73487;54.448;-0.942;2024-02-14T07:07:45;1;1;0
83543;PMS5003;73487;54.448;-0.942;2024-02-14T07:10:45;0;0;0
83543;PMS5003;73487;54.448;-0.942;2024-02-14T07:13:45;1;0;0
83543;PMS5003;73487;54.448;-0.942;2024-02-14T07:16:45;0;0;0
83543;PMS5003;73487;54.448;-0.942;2024-02-14T07:19:45;1;1;0
83543;PMS5003;73487;54.448;-0.942;2024-02-14T07:22:45;0;0;0
83543;PMS5003;73487;54.448;-0.942;2024-02-14T07:25:45;0;0;0
83543;PMS5003;73487;54.448;-0.942;2024-02-14T07:28:45;0;0;0
83543;PMS5003;73487;54.448;-0.942;2024-02-14T07:31:45;0;0;0
83543;PMS5003;73487;54.448;-0.942;2024-02-14T07:34:45;1;0;0
83543;PMS5003;73487;54.448;-0.942;2024-02-14T07:37:45;1;1;0
83543;PMS5003;73487;54.448;-0.942;2024-02-14T07:40:45;0;0;0
83543;PMS5003;73487;54.448;-0.942;2024-02-14T07:43:45;0;0;0
83543;PMS5003;73487;54.448;-0.942;2024-02-14T07:46:45;0;0;0
83543;PMS5003;73487;54.448;-0.942;2024-02-14T07:49:45;1;1;1
83543;PMS5003;73487;54.448;-0.942;2024-02-14T07:52:46;1;1;0
83543;PMS5003;73487;54.448;-0.942;2024-02-14T07:55:45;1;1;1
83543;PMS5003;73487;54.448;-0.942;2024-02-14T07:58:45;2;2;1
83543;PMS5003;73487;54.448;-0.942;2024-02-14T08:01:45;2;2;1
83543;PMS5003;73487;54.448;-0.942;2024-02-14T08:04:45;3;2;1
83543;PMS5003;73487;54.448;-0.942;2024-02-14T08:07:45;2;2;1
83543;PMS5003;73487;54.448;-0.942;2024-02-14T08:10:45;4;4;1
83543;PMS5003;73487;54.448;-0.942;2024-02-14T08:13:45;2;2;1
83543;PMS5003;73487;54.448;-0.942;2024-02-14T08:16:45;2;2;1
83543;PMS5003;73487;54.448;-0.942;2024-02-14T08:19:45;3;3;1
83543;PMS5003;73487;54.448;-0.942;2024-02-14T08:22:45;2;2;1
83543;PMS5003;73487;54.448;-0.942;2024-02-14T08:25:45;3;3;2
83543;PMS5003;73487;54.448;-0.942;2024-02-14T08:28:45;2;2;0
83543;PMS5003;73487;54.448;-0.942;2024-02-14T08:31:45;2;1;1
83543;PMS5003;73487;54.448;-0.942;2024-02-14T08:34:45;2;2;1
83543;PMS5003;73487;54.448;-0.942;2024-02-14T08:37:45;2;1;1
83543;PMS5003;73487;54.448;-0.942;2024-02-14T08:40:45;5;3;1
83543;PMS5003;73487;54.448;-0.942;2024-02-14T08:43:45;4;3;1
83543;PMS5003;73487;54.448;-0.942;2024-02-14T08:46:45;2;2;1
83543;PMS5003;73487;54.448;-0.942;2024-02-14T08:49:45;4;4;2
83543;PMS5003;73487;54.448;-0.942;2024-02-14T08:52:45;4;4;2
83543;PMS5003;73487;54.448;-0.942;2024-02-14T08:55:45;3;3;1
83543;PMS5003;73487;54.448;-0.942;2024-02-14T08:58:45;3;2;1
83543;PMS5003;73487;54.448;-0.942;2024-02-14T09:01:45;8;7;2
83543;PMS5003;73487;54.448;-0.942;2024-02-14T09:04:45;7;7;2
83543;PMS5003;73487;54.448;-0.942;2024-02-14T09:07:45;6;6;2
83543;PMS5003;73487;54.448;-0.942;2024-02-14T09:10:45;5;5;2
83543;PMS5003;73487;54.448;-0.942;2024-02-14T09:13:45;8;5;2
83543;PMS5003;73487;54.448;-0.942;2024-02-14T09:16:45;8;8;3
83543;PMS5003;73487;54.448;-0.942;2024-02-14T09:19:45;9;8;4
83543;PMS5003;73487;54.448;-0.942;2024-02-14T09:22:45;9;7;3
83543;PMS5003;73487;54.448;-0.942;2024-02-14T09:25:46;11;9;3
83543;PMS5003;73487;54.448;-0.942;2024-02-14T09:28:45;11;10;5
83543;PMS5003;73487;54.448;-0.942;2024-02-14T09:31:45;11;9;4
83543;PMS5003;73487;54.448;-0.942;2024-02-14T09:34:45;12;8;4
83543;PMS5003;73487;54.448;-0.942;2024-02-14T09:37:45;12;9;4
83543;PMS5003;73487;54.448;-0.942;2024-02-14T09:40:45;14;14;7
83543;PMS5003;73487;54.448;-0.942;2024-02-14T09:43:45;10;10;5
83543;PMS5003;73487;54.448;-0.942;2024-02-14T09:47:15;6;6;4
83543;PMS5003;73487;54.448;-0.942;2024-02-14T09:50:15;10;10;4
83543;PMS5003;73487;54.448;-0.942;2024-02-14T09:53:16;9;8;4
83543;PMS5003;73487;54.448;-0.942;2024-02-14T09:56:15;6;6;3
83543;PMS5003;73487;54.448;-0.942;2024-02-14T09:59:15;4;4;2
83543;PMS5003;73487;54.448;-0.942;2024-02-14T10:02:15;3;2;1
83543;PMS5003;73487;54.448;-0.942;2024-02-14T10:05:15;4;2;1
83543;PMS5003;73487;54.448;-0.942;2024-02-14T10:08:15;2;2;1
83543;PMS5003;73487;54.448;-0.942;2024-02-14T10:11:15;3;2;1
83543;PMS5003;73487;54.448;-0.942;2024-02-14T10:14:15;2;2;0
83543;PMS5003;73487;54.448;-0.942;2024-02-14T10:17:18;1;1;1
83543;PMS5003;73487;54.448;-0.942;2024-02-14T10:20:18;2;2;0
83543;PMS5003;73487;54.448;-0.942;2024-02-14T10:23:15;2;2;1
83543;PMS5003;73487;54.448;-0.942;2024-02-14T10:26:15;1;1;1
83543;PMS5003;73487;54.448;-0.942;2024-02-14T10:29:15;2;2;1
83543;PMS5003;73487;54.448;-0.942;2024-02-14T10:32:15;2;2;1
83543;PMS5003;73487;54.448;-0.942;2024-02-14T10:35:15;2;2;1
83543;PMS5003;73487;54.448;-0.942;2024-02-14T10:38:15;2;2;0
83543;PMS5003;73487;54.448;-0.942;2024-02-14T10:41:16;2;2;1
83543;PMS5003;73487;54.448;-0.942;2024-02-14T10:44:15;5;4;1
83543;PMS5003;73487;54.448;-0.942;2024-02-14T10:47:17;5;4;2
83543;PMS5003;73487;54.448;-0.942;2024-02-14T10:50:15;9;7;3
83543;PMS5003;73487;54.448;-0.942;2024-02-14T10:53:15;6;6;3
83543;PMS5003;73487;54.448;-0.942;2024-02-14T10:56:17;8;6;2
83543;PMS5003;73487;54.448;-0.942;2024-02-14T10:59:16;9;6;2
83543;PMS5003;73487;54.448;-0.942;2024-02-14T11:02:15;3;3;2
83543;PMS5003;73487;54.448;-0.942;2024-02-14T11:05:15;5;5;2
83543;PMS5003;73487;54.448;-0.942;2024-02-14T11:08:18;10;7;3
83543;PMS5003;73487;54.448;-0.942;2024-02-14T11:11:15;6;5;2
83543;PMS5003;73487;54.448;-0.942;2024-02-14T11:14:16;9;9;4
83543;PMS5003;73487;54.448;-0.942;2024-02-14T11:17:15;10;9;3
83543;PMS5003;73487;54.448;-0.942;2024-02-14T11:20:16;11;11;4
83543;PMS5003;73487;54.448;-0.942;2024-02-14T11:23:20;15;15;7
83543;PMS5003;73487;54.448;-0.942;2024-02-14T11:26:15;13;13;6
83543;PMS5003;73487;54.448;-0.942;2024-02-14T11:29:15;16;13;7
83543;PMS5003;73487;54.448;-0.942;2024-02-14T11:32:15;19;17;7
83543;PMS5003;73487;54.448;-0.942;2024-02-14T11:35:15;14;13;5
83543;PMS5003;73487;54.448;-0.942;2024-02-14T11:38:15;14;13;5
83543;PMS5003;73487;54.448;-0.942;2024-02-14T11:41:15;12;11;5
83543;PMS5003;73487;54.448;-0.942;2024-02-14T11:44:15;14;14;5
83543;PMS5003;73487;54.448;-0.942;2024-02-14T11:47:15;11;9;4
83543;PMS5003;73487;54.448;-0.942;2024-02-14T11:50:17;9;9;5
83543;PMS5003;73487;54.448;-0.942;2024-02-14T11:53:15;11;11;5
83543;PMS5003;73487;54.448;-0.942;2024-02-14T11:56:15;7;7;3
83543;PMS5003;73487;54.448;-0.942;2024-02-14T11:59:15;8;8;3
83543;PMS5003;73487;54.448;-0.942;2024-02-14T12:02:15;10;9;3
83543;PMS5003;73487;54.448;-0.942;2024-02-14T12:05:16;7;7;4
83543;PMS5003;73487;54.448;-0.942;2024-02-14T12:08:16;9;8;3
83543;PMS5003;73487;54.448;-0.942;2024-02-14T12:11:15;14;14;6
83543;PMS5003;73487;54.448;-0.942;2024-02-14T12:14:15;13;11;6
83543;PMS5003;73487;54.448;-0.942;2024-02-14T12:17:16;15;14;6
83543;PMS5003;73487;54.448;-0.942;2024-02-14T12:20:15;15;14;6
83543;PMS5003;73487;54.448;-0.942;2024-02-14T12:23:16;17;17;8
83543;PMS5003;73487;54.448;-0.942;2024-02-14T12:26:15;14;14;6
83543;PMS5003;73487;54.448;-0.942;2024-02-14T12:29:15;14;13;4
83543;PMS5003;73487;54.448;-0.942;2024-02-14T12:32:16;17;14;7
83543;PMS5003;73487;54.448;-0.942;2024-02-14T12:35:16;18;17;8
83543;PMS5003;73487;54.448;-0.942;2024-02-14T12:38:16;18;17;6
83543;PMS5003;73487;54.448;-0.942;2024-02-14T12:41:15;12;12;5
83543;PMS5003;73487;54.448;-0.942;2024-02-14T12:44:15;13;12;4
83543;PMS5003;73487;54.448;-0.942;2024-02-14T12:47:15;16;16;8
83543;PMS5003;73487;54.448;-0.942;2024-02-14T12:50:15;21;20;7
83543;PMS5003;73487;54.448;-0.942;2024-02-14T12:53:15;16;15;7
83543;PMS5003;73487;54.448;-0.942;2024-02-14T12:56:15;21;20;8
83543;PMS5003;73487;54.448;-0.942;2024-02-14T12:59:16;21;19;7
83543;PMS5003;73487;54.448;-0.942;2024-02-14T13:02:15;15;14;6
83543;PMS5003;73487;54.448;-0.942;2024-02-14T13:05:15;16;16;6
83543;PMS5003;73487;54.448;-0.942;2024-02-14T13:08:15;18;17;7
83543;PMS5003;73487;54.448;-0.942;2024-02-14T13:11:45;18;17;8
83543;PMS5003;73487;54.448;-0.942;2024-02-14T13:14:45;18;17;7
83543;PMS5003;73487;54.448;-0.942;2024-02-14T13:17:45;22;20;9
83543;PMS5003;73487;54.448;-0.942;2024-02-14T13:20:45;17;17;6
83543;PMS5003;73487;54.448;-0.942;2024-02-14T13:23:45;16;16;8
83543;PMS5003;73487;54.448;-0.942;2024-02-14T13:26:45;16;14;6
83543;PMS5003;73487;54.448;-0.942;2024-02-14T13:29:45;10;10;5
83543;PMS5003;73487;54.448;-0.942;2024-02-14T13:32:45;17;13;6
83543;PMS5003;73487;54.448;-0.942;2024-02-14T13:35:45;10;10;5
83543;PMS5003;73487;54.448;-0.942;2024-02-14T13:38:45;14;11;5
83543;PMS5003;73487;54.448;-0.942;2024-02-14T13:41:45;9;9;5
83543;PMS5003;73487;54.448;-0.942;2024-02-14T13:44:45;9;9;5
83543;PMS5003;73487;54.448;-0.942;2024-02-14T13:47:45;7;7;3
83543;PMS5003;73487;54.448;-0.942;2024-02-14T13:50:45;6;6;3
83543;PMS5003;73487;54.448;-0.942;2024-02-14T13:53:45;10;9;4
83543;PMS5003;73487;54.448;-0.942;2024-02-14T13:56:45;12;10;4
83543;PMS5003;73487;54.448;-0.942;2024-02-14T13:59:45;11;10;6
83543;PMS5003;73487;54.448;-0.942;2024-02-14T14:02:45;10;10;5
83543;PMS5003;73487;54.448;-0.942;2024-02-14T14:05:45;12;10;4
83543;PMS5003;73487;54.448;-0.942;2024-02-14T14:08:45;10;10;5
83543;PMS5003;73487;54.448;-0.942;2024-02-14T14:11:45;9;8;4
83543;PMS5003;73487;54.448;-0.942;2024-02-14T14:14:45;12;11;4
83543;PMS5003;73487;54.448;-0.942;2024-02-14T14:17:45;10;10;4
83543;PMS5003;73487;54.448;-0.942;2024-02-14T14:20:45;9;9;4
83543;PMS5003;73487;54.448;-0.942;2024-02-14T14:23:45;10;9;4
83543;PMS5003;73487;54.448;-0.942;2024-02-14T14:26:45;10;9;4
83543;PMS5003;73487;54.448;-0.942;2024-02-14T14:29:45;9;7;5
83543;PMS5003;73487;54.448;-0.942;2024-02-14T14:32:45;8;7;4
83543;PMS5003;73487;54.448;-0.942;2024-02-14T14:35:45;12;11;5
83543;PMS5003;73487;54.448;-0.942;2024-02-14T14:38:45;10;10;5
83543;PMS5003;73487;54.448;-0.942;2024-02-14T14:41:45;11;11;5
83543;PMS5003;73487;54.448;-0.942;2024-02-14T14:44:45;9;8;4
83543;PMS5003;73487;54.448;-0.942;2024-02-14T14:47:45;15;14;6
83543;PMS5003;73487;54.448;-0.942;2024-02-14T14:50:45;9;9;4
83543;PMS5003;73487;54.448;-0.942;2024-02-14T14:53:45;7;7;4
83543;PMS5003;73487;54.448;-0.942;2024-02-14T14:56:45;8;8;4
83543;PMS5003;73487;54.448;-0.942;2024-02-14T14:59:45;6;6;3
83543;PMS5003;73487;54.448;-0.942;2024-02-14T15:02:45;5;5;3
83543;PMS5003;73487;54.448;-0.942;2024-02-14T15:05:45;8;8;3
83543;PMS5003;73487;54.448;-0.942;2024-02-14T15:08:45;3;3;2
83543;PMS5003;73487;54.448;-0.942;2024-02-14T15:11:45;2;1;1
83543;PMS5003;73487;54.448;-0.942;2024-02-14T15:14:45;2;2;1
83543;PMS5003;73487;54.448;-0.942;2024-02-14T15:17:45;3;2;1
83543;PMS5003;73487;54.448;-0.942;2024-02-14T15:20:45;1;1;1
83543;PMS5003;73487;54.448;-0.942;2024-02-14T15:23:45;1;1;1
83543;PMS5003;73487;54.448;-0.942;2024-02-14T15:26:45;0;0;0
83543;PMS5003;73487;54.448;-0.942;2024-02-14T15:29:45;1;0;0
83543;PMS5003;73487;54.448;-0.942;2024-02-14T15:32:45;1;1;0
83543;PMS5003;73487;54.448;-0.942;2024-02-14T15:35:45;0;0;0
83543;PMS5003;73487;54.448;-0.942;2024-02-14T15:38:45;0;0;0
83543;PMS5003;73487;54.448;-0.942;2024-02-14T15:41:45;0;0;0
83543;PMS5003;73487;54.448;-0.942;2024-02-14T15:44:45;0;0;0
83543;PMS5003;73487;54.448;-0.942;2024-02-14T15:47:46;0;0;0
83543;PMS5003;73487;54.448;-0.942;2024-02-14T15:50:45;0;0;0
83543;PMS5003;73487;54.448;-0.942;2024-02-14T15:53:45;0;0;0
83543;PMS5003;73487;54.448;-0.942;2024-02-14T15:56:46;0;0;0
83543;PMS5003;73487;54.448;-0.942;2024-02-14T15:59:45;0;0;0
83543;PMS5003;73487;54.448;-0.942;2024-02-14T16:02:46;0;0;0
83543;PMS5003;73487;54.448;-0.942;2024-02-14T16:05:45;0;0;0
83543;PMS5003;73487;54.448;-0.942;2024-02-14T16:08:45;0;0;0
83543;PMS5003;73487;54.448;-0.942;2024-02-14T16:11:45;0;0;0
83543;PMS5003;73487;54.448;-0.942;2024-02-14T16:14:45;0;0;0
83543;PMS5003;73487;54.448;-0.942;2024-02-14T16:17:46;0;0;0
83543;PMS5003;73487;54.448;-0.942;2024-02-14T16:20:45;0;0;0
83543;PMS5003;73487;54.448;-0.942;2024-02-14T16:23:45;0;0;0
83543;PMS5003;73487;54.448;-0.942;2024-02-14T16:26:45;0;0;0
83543;PMS5003;73487;54.448;-0.942;2024-02-14T16:29:45;0;0;0
83543;PMS5003;73487;54.448;-0.942;2024-02-14T16:32:45;0;0;0
83543;PMS5003;73487;54.448;-0.942;2024-02-14T16:35:45;1;1;0
83543;PMS5003;73487;54.448;-0.942;2024-02-14T16:38:45;0;0;0
83543;PMS5003;73487;54.448;-0.942;2024-02-14T16:41:45;0;0;0
83543;PMS5003;73487;54.448;-0.942;2024-02-14T16:45:15;0;0;0
83543;PMS5003;73487;54.448;-0.942;2024-02-14T16:48:15;1;1;0
83543;PMS5003;73487;54.448;-0.942;2024-02-14T16:51:15;0;0;0
83543;PMS5003;73487;54.448;-0.942;2024-02-14T16:54:15;1;1;0
83543;PMS5003;73487;54.448;-0.942;2024-02-14T16:57:15;2;2;0
83543;PMS5003;73487;54.448;-0.942;2024-02-14T17:00:15;1;1;0
83543;PMS5003;73487;54.448;-0.942;2024-02-14T17:03:15;1;1;0
83543;PMS5003;73487;54.448;-0.942;2024-02-14T17:06:18;1;1;0
83543;PMS5003;73487;54.448;-0.942;2024-02-14T17:09:15;3;2;1
83543;PMS5003;73487;54.448;-0.942;2024-02-14T17:12:15;3;3;1
83543;PMS5003;73487;54.448;-0.942;2024-02-14T17:15:15;3;1;0
83543;PMS5003;73487;54.448;-0.942;2024-02-14T17:18:15;1;1;1
83543;PMS5003;73487;54.448;-0.942;2024-02-14T17:21:15;1;1;0
83543;PMS5003;73487;54.448;-0.942;2024-02-14T17:24:15;2;2;1
83543;PMS5003;73487;54.448;-0.942;2024-02-14T17:27:15;3;2;0
83543;PMS5003;73487;54.448;-0.942;2024-02-14T17:30:15;2;2;1
83543;PMS5003;73487;54.448;-0.942;2024-02-14T17:33:15;3;2;1
83543;PMS5003;73487;54.448;-0.942;2024-02-14T17:36:16;1;1;0
83543;PMS5003;73487;54.448;-0.942;2024-02-14T17:39:15;1;1;1
83543;PMS5003;73487;54.448;-0.942;2024-02-14T17:42:15;1;1;0
83543;PMS5003;73487;54.448;-0.942;2024-02-14T17:45:15;4;4;3
83543;PMS5003;73487;54.448;-0.942;2024-02-14T17:48:15;4;4;2
83543;PMS5003;73487;54.448;-0.942;2024-02-14T17:51:15;7;6;3
83543;PMS5003;73487;54.448;-0.942;2024-02-14T17:54:15;49;42;29
83543;PMS5003;73487;54.448;-0.942;2024-02-14T17:57:15;5;4;2
83543;PMS5003;73487;54.448;-0.942;2024-02-14T18:00:15;2;1;0
83543;PMS5003;73487;54.448;-0.942;2024-02-14T18:03:15;3;3;1
83543;PMS5003;73487;54.448;-0.942;2024-02-14T18:06:15;2;2;1
83543;PMS5003;73487;54.448;-0.942;2024-02-14T18:09:15;5;5;2
83543;PMS5003;73487;54.448;-0.942;2024-02-14T18:12:15;7;4;1
83543;PMS5003;73487;54.448;-0.942;2024-02-14T18:15:15;5;5;3
83543;PMS5003;73487;54.448;-0.942;2024-02-14T18:18:15;7;4;2
83543;PMS5003;73487;54.448;-0.942;2024-02-14T18:21:15;8;7;4
83543;PMS5003;73487;54.448;-0.942;2024-02-14T18:24:15;7;7;3
83543;PMS5003;73487;54.448;-0.942;2024-02-14T18:27:15;10;7;3
83543;PMS5003;73487;54.448;-0.942;2024-02-14T18:30:15;4;4;1
83543;PMS5003;73487;54.448;-0.942;2024-02-14T18:33:15;7;6;3
83543;PMS5003;73487;54.448;-0.942;2024-02-14T18:36:15;7;4;2
83543;PMS5003;73487;54.448;-0.942;2024-02-14T18:39:15;5;4;2
83543;PMS5003;73487;54.448;-0.942;2024-02-14T18:42:15;6;4;2
83543;PMS5003;73487;54.448;-0.942;2024-02-14T18:45:15;5;5;3
83543;PMS5003;73487;54.448;-0.942;2024-02-14T18:48:15;5;4;2
83543;PMS5003;73487;54.448;-0.942;2024-02-14T18:51:15;5;4;1
83543;PMS5003;73487;54.448;-0.942;2024-02-14T18:54:15;6;4;1
83543;PMS5003;73487;54.448;-0.942;2024-02-14T18:57:15;3;3;2
83543;PMS5003;73487;54.448;-0.942;2024-02-14T19:00:16;7;7;3
83543;PMS5003;73487;54.448;-0.942;2024-02-14T19:03:16;6;5;3
83543;PMS5003;73487;54.448;-0.942;2024-02-14T19:06:15;6;6;2
83543;PMS5003;73487;54.448;-0.942;2024-02-14T19:09:15;8;8;4
83543;PMS5003;73487;54.448;-0.942;2024-02-14T19:12:15;7;6;3
83543;PMS5003;73487;54.448;-0.942;2024-02-14T19:15:15;6;4;3
83543;PMS5003;73487;54.448;-0.942;2024-02-14T19:18:15;7;6;2
83543;PMS5003;73487;54.448;-0.942;2024-02-14T19:21:15;8;6;3
83543;PMS5003;73487;54.448;-0.942;2024-02-14T19:24:15;8;6;3
83543;PMS5003;73487;54.448;-0.942;2024-02-14T19:27:16;9;5;3
83543;PMS5003;73487;54.448;-0.942;2024-02-14T19:30:15;5;5;2
83543;PMS5003;73487;54.448;-0.942;2024-02-14T19:33:15;7;5;2
83543;PMS5003;73487;54.448;-0.942;2024-02-14T19:36:15;8;6;3